sensor_id;sensor_type;location;lat;lon;timestamp;pressure;altitude;pressure_sealevel;temperature;humidity
21902;BME280;11115;46.038;14.612;2024-02-26T00:00:32;97496.69;;;3.85;100.00
21902;BME280;11115;46.038;14.612;2024-02-26T00:03:13;97495.47;;;3.96;100.00
21902;BME280;11115;46.038;14.612;2024-02-26T00:05:56;97501.53;;;3.93;100.00
21902;BME280;11115;46.038;14.612;2024-02-26T00:08:38;97491.78;;;3.82;100.00
21902;BME280;11115;46.038;14.612;2024-02-26T00:11:07;97493.56;;;3.96;100.00
21902;BME280;11115;46.038;14.612;2024-02-26T00:13:42;97491.09;;;3.95;100.00
21902;BME280;11115;46.038;14.612;2024-02-26T00:16:15;97494.06;;;3.75;100.00
21902;BME280;11115;46.038;14.612;2024-02-26T00:18:46;97481.50;;;3.74;100.00
21902;BME280;11115;46.038;14.612;2024-02-26T00:21:20;97494.88;;;3.75;100.00
21902;BME280;11115;46.038;14.612;2024-02-26T00:23:58;97476.91;;;3.69;100.00
21902;BME280;11115;46.038;14.612;2024-02-26T00:26:35;97493.41;;;3.83;100.00
21902;BME280;11115;46.038;14.612;2024-02-26T00:29:07;97495.91;;;3.79;100.00
21902;BME280;11115;46.038;14.612;2024-02-26T00:31:38;97493.25;;;3.98;100.00
21902;BME280;11115;46.038;14.612;2024-02-26T00:34:07;97489.63;;;4.08;100.00
21902;BME280;11115;46.038;14.612;2024-02-26T00:36:41;97468.19;;;3.91;100.00
21902;BME280;11115;46.038;14.612;2024-02-26T00:39:15;97490.44;;;4.08;100.00
21902;BME280;11115;46.038;14.612;2024-02-26T00:42:00;97488.22;;;4.10;100.00
21902;BME280;11115;46.038;14.612;2024-02-26T00:44:31;97490.53;;;3.98;100.00
21902;BME280;11115;46.038;14.612;2024-02-26T00:47:00;97490.94;;;4.10;100.00
21902;BME280;11115;46.038;14.612;2024-02-26T00:49:35;97475.56;;;3.90;100.00
21902;BME280;11115;46.038;14.612;2024-02-26T00:52:07;97472.41;;;4.02;100.00
21902;BME280;11115;46.038;14.612;2024-02-26T00:54:43;97488.50;;;4.09;100.00
21902;BME280;11115;46.038;14.612;2024-02-26T00:57:21;97486.44;;;4.19;100.00
21902;BME280;11115;46.038;14.612;2024-02-26T01:00:08;97476.47;;;4.05;100.00
21902;BME280;11115;46.038;14.612;2024-02-26T01:02:44;97469.38;;;4.04;100.00
21902;BME280;11115;46.038;14.612;2024-02-26T01:05:21;97465.78;;;4.08;100.00
21902;BME280;11115;46.038;14.612;2024-02-26T01:07:52;97472.75;;;4.19;100.00
21902;BME280;11115;46.038;14.612;2024-02-26T01:10:25;97473.28;;;4.21;100.00
21902;BME280;11115;46.038;14.612;2024-02-26T01:13:01;97466.06;;;4.31;100.00
21902;BME280;11115;46.038;14.612;2024-02-26T01:15:35;97470.91;;;3.91;100.00
21902;BME280;11115;46.038;14.612;2024-02-26T01:18:06;97465.22;;;3.87;100.00
21902;BME280;11115;46.038;14.612;2024-02-26T01:20:48;97459.09;;;3.95;100.00
21902;BME280;11115;46.038;14.612;2024-02-26T01:23:37;97456.66;;;3.94;100.00
21902;BME280;11115;46.038;14.612;2024-02-26T01:26:14;97464.25;;;3.73;100.00
21902;BME280;11115;46.038;14.612;2024-02-26T01:29:01;97461.94;;;3.85;100.00
21902;BME280;11115;46.038;14.612;2024-02-26T01:31:39;97459.16;;;3.61;100.00
21902;BME280;11115;46.038;14.612;2024-02-26T01:34:12;97453.81;;;3.51;100.00
21902;BME280;11115;46.038;14.612;2024-02-26T01:36:52;97459.16;;;3.67;100.00
21902;BME280;11115;46.038;14.612;2024-02-26T01:39:26;97459.41;;;3.65;100.00
21902;BME280;11115;46.038;14.612;2024-02-26T01:42:01;97447.25;;;3.52;100.00
21902;BME280;11115;46.038;14.612;2024-02-26T01:44:32;97400.59;;;3.15;100.00
21902;BME280;11115;46.038;14.612;2024-02-26T01:47:11;97429.72;;;3.24;100.00
21902;BME280;11115;46.038;14.612;2024-02-26T01:49:44;97433.94;;;2.78;100.00
21902;BME280;11115;46.038;14.612;2024-02-26T01:52:18;97441.16;;;2.97;100.00
21902;BME280;11115;46.038;14.612;2024-02-26T01:54:57;97435.22;;;2.90;100.00
21902;BME280;11115;46.038;14.612;2024-02-26T01:57:30;97423.16;;;2.96;100.00
21902;BME280;11115;46.038;14.612;2024-02-26T02:00:03;97409.19;;;2.98;100.00
21902;BME280;11115;46.038;14.612;2024-02-26T02:02:43;97412.13;;;3.07;100.00
21902;BME280;11115;46.038;14.612;2024-02-26T02:05:17;97410.66;;;2.85;100.00
21902;BME280;11115;46.038;14.612;2024-02-26T02:07:48;97406.81;;;2.86;100.00
21902;BME280;11115;46.038;14.612;2024-02-26T02:10:24;97421.00;;;2.93;100.00
21902;BME280;11115;46.038;14.612;2024-02-26T02:12:59;97426.97;;;2.95;100.00
21902;BME280;11115;46.038;14.612;2024-02-26T02:15:31;97420.63;;;2.66;100.00
21902;BME280;11115;46.038;14.612;2024-02-26T02:18:04;97421.09;;;2.78;100.00
21902;BME280;11115;46.038;14.612;2024-02-26T02:20:49;97424.66;;;2.34;100.00
21902;BME280;11115;46.038;14.612;2024-02-26T02:23:33;97421.94;;;2.29;100.00
21902;BME280;11115;46.038;14.612;2024-02-26T02:26:13;97428.31;;;2.15;100.00
21902;BME280;11115;46.038;14.612;2024-02-26T02:28:47;97428.66;;;2.47;100.00
21902;BME280;11115;46.038;14.612;2024-02-26T02:31:26;97421.38;;;2.37;100.00
21902;BME280;11115;46.038;14.612;2024-02-26T02:34:02;97434.69;;;2.44;100.00
21902;BME280;11115;46.038;14.612;2024-02-26T02:36:56;97433.75;;;2.64;100.00
21902;BME280;11115;46.038;14.612;2024-02-26T02:39:30;97432.91;;;2.68;100.00
21902;BME280;11115;46.038;14.612;2024-02-26T02:42:02;97409.47;;;2.62;100.00
21902;BME280;11115;46.038;14.612;2024-02-26T02:44:33;97436.34;;;2.84;100.00
21902;BME280;11115;46.038;14.612;2024-02-26T02:47:09;97430.25;;;2.97;100.00
21902;BME280;11115;46.038;14.612;2024-02-26T02:49:42;97433.03;;;2.92;100.00
21902;BME280;11115;46.038;14.612;2024-02-26T02:52:36;97429.47;;;2.92;100.00
21902;BME280;11115;46.038;14.612;2024-02-26T02:55:08;97421.50;;;2.95;100.00
21902;BME280;11115;46.038;14.612;2024-02-26T02:57:40;97427.50;;;2.97;100.00
21902;BME280;11115;46.038;14.612;2024-02-26T03:00:12;97424.16;;;3.05;100.00
21902;BME280;11115;46.038;14.612;2024-02-26T03:02:49;97430.81;;;2.94;100.00
21902;BME280;11115;46.038;14.612;2024-02-26T03:05:25;97439.28;;;2.93;100.00
21902;BME280;11115;46.038;14.612;2024-02-26T03:08:03;97424.94;;;3.11;100.00
21902;BME280;11115;46.038;14.612;2024-02-26T03:10:58;97424.38;;;3.14;100.00
21902;BME280;11115;46.038;14.612;2024-02-26T03:13:29;97405.88;;;3.01;100.00
21902;BME280;11115;46.038;14.612;2024-02-26T03:16:06;97419.88;;;2.94;100.00
21902;BME280;11115;46.038;14.612;2024-02-26T03:18:59;97418.44;;;3.02;100.00
21902;BME280;11115;46.038;14.612;2024-02-26T03:21:56;97423.44;;;2.95;100.00
21902;BME280;11115;46.038;14.612;2024-02-26T03:24:24;97382.69;;;2.64;100.00
21902;BME280;11115;46.038;14.612;2024-02-26T03:27:07;97403.53;;;2.89;100.00
21902;BME280;11115;46.038;14.612;2024-02-26T03:29:45;97403.81;;;2.88;100.00
21902;BME280;11115;46.038;14.612;2024-02-26T03:32:16;97408.63;;;3.01;100.00
21902;BME280;11115;46.038;14.612;2024-02-26T03:34:49;97398.03;;;2.94;100.00
21902;BME280;11115;46.038;14.612;2024-02-26T03:37:29;97407.50;;;2.73;100.00
21902;BME280;11115;46.038;14.612;2024-02-26T03:40:02;97406.28;;;2.84;100.00
21902;BME280;11115;46.038;14.612;2024-02-26T03:42:36;97411.09;;;2.63;100.00
21902;BME280;11115;46.038;14.612;2024-02-26T03:45:17;97418.94;;;2.75;100.00
21902;BME280;11115;46.038;14.612;2024-02-26T03:47:59;97348.53;;;2.28;100.00
21902;BME280;11115;46.038;14.612;2024-02-26T03:50:30;97389.53;;;2.62;100.00
21902;BME280;11115;46.038;14.612;2024-02-26T03:53:09;97409.06;;;2.79;100.00
21902;BME280;11115;46.038;14.612;2024-02-26T03:55:41;97399.88;;;2.65;100.00
21902;BME280;11115;46.038;14.612;2024-02-26T03:58:13;97400.94;;;2.74;100.00
21902;BME280;11115;46.038;14.612;2024-02-26T04:00:46;97403.31;;;2.81;100.00
21902;BME280;11115;46.038;14.612;2024-02-26T04:03:16;97390.75;;;2.46;100.00
21902;BME280;11115;46.038;14.612;2024-02-26T04:05:48;97403.66;;;2.69;100.00
21902;BME280;11115;46.038;14.612;2024-02-26T04:08:25;97396.59;;;2.68;100.00
21902;BME280;11115;46.038;14.612;2024-02-26T04:11:01;97394.88;;;2.38;100.00
21902;BME280;11115;46.038;14.612;2024-02-26T04:13:36;97391.38;;;2.32;100.00
21902;BME280;11115;46.038;14.612;2024-02-26T04:16:11;97397.38;;;2.34;100.00
21902;BME280;11115;46.038;14.612;2024-02-26T04:18:44;97394.84;;;2.43;100.00
21902;BME280;11115;46.038;14.612;2024-02-26T04:21:16;97393.16;;;2.52;100.00
21902;BME280;11115;46.038;14.612;2024-02-26T04:23:53;97399.25;;;2.39;100.00
21902;BME280;11115;46.038;14.612;2024-02-26T04:26:26;97394.75;;;2.58;100.00
21902;BME280;11115;46.038;14.612;2024-02-26T04:28:59;97386.91;;;2.47;100.00
21902;BME280;11115;46.038;14.612;2024-02-26T04:31:27;97397.91;;;2.36;100.00
21902;BME280;11115;46.038;14.612;2024-02-26T04:34:04;97386.38;;;2.44;100.00
21902;BME280;11115;46.038;14.612;2024-02-26T04:36:51;97402.22;;;2.42;100.00
21902;BME280;11115;46.038;14.612;2024-02-26T04:39:36;97404.91;;;2.48;100.00
21902;BME280;11115;46.038;14.612;2024-02-26T04:42:09;97342.38;;;2.12;100.00
21902;BME280;11115;46.038;14.612;2024-02-26T04:44:43;97399.44;;;2.53;100.00
21902;BME280;11115;46.038;14.612;2024-02-26T04:47:18;97406.09;;;2.36;100.00
21902;BME280;11115;46.038;14.612;2024-02-26T04:49:56;97399.78;;;2.41;100.00
21902;BME280;11115;46.038;14.612;2024-02-26T04:52:29;97402.22;;;2.42;100.00
21902;BME280;11115;46.038;14.612;2024-02-26T04:55:03;97409.81;;;2.51;100.00
21902;BME280;11115;46.038;14.612;2024-02-26T04:57:36;97404.91;;;2.48;100.00
21902;BME280;11115;46.038;14.612;2024-02-26T05:00:06;97406.66;;;2.33;100.00
21902;BME280;11115;46.038;14.612;2024-02-26T05:02:37;97403.13;;;2.33;100.00
21902;BME280;11115;46.038;14.612;2024-02-26T05:05:18;97401.50;;;2.32;100.00
21902;BME280;11115;46.038;14.612;2024-02-26T05:07:54;97412.44;;;2.22;100.00
21902;BME280;11115;46.038;14.612;2024-02-26T05:10:23;97400.69;;;2.26;100.00
21902;BME280;11115;46.038;14.612;2024-02-26T05:12:58;97402.84;;;2.34;100.00
21902;BME280;11115;46.038;14.612;2024-02-26T05:15:32;97406.06;;;2.41;100.00
21902;BME280;11115;46.038;14.612;2024-02-26T05:18:07;97414.78;;;2.43;100.00
21902;BME280;11115;46.038;14.612;2024-02-26T05:20:38;97406.19;;;2.21;100.00
21902;BME280;11115;46.038;14.612;2024-02-26T05:23:13;97412.78;;;2.05;100.00
21902;BME280;11115;46.038;14.612;2024-02-26T05:25:44;97415.41;;;2.25;100.00
21902;BME280;11115;46.038;14.612;2024-02-26T05:28:18;97404.53;;;2.20;100.00
21902;BME280;11115;46.038;14.612;2024-02-26T05:30:50;97379.03;;;1.96;100.00
21902;BME280;11115;46.038;14.612;2024-02-26T05:33:27;97410.84;;;2.16;100.00
21902;BME280;11115;46.038;14.612;2024-02-26T05:35:58;97413.94;;;1.99;100.00
21902;BME280;11115;46.038;14.612;2024-02-26T05:38:38;97414.88;;;2.23;100.00
21902;BME280;11115;46.038;14.612;2024-02-26T05:41:23;97414.06;;;2.23;100.00
21902;BME280;11115;46.038;14.612;2024-02-26T05:43:58;97413.34;;;2.07;100.00
21902;BME280;11115;46.038;14.612;2024-02-26T05:46:40;97423.19;;;2.03;100.00
21902;BME280;11115;46.038;14.612;2024-02-26T05:49:20;97409.50;;;2.13;100.00
21902;BME280;11115;46.038;14.612;2024-02-26T05:51:49;97415.41;;;2.25;100.00
21902;BME280;11115;46.038;14.612;2024-02-26T05:54:31;97410.28;;;2.19;100.00
21902;BME280;11115;46.038;14.612;2024-02-26T05:57:12;97421.22;;;2.13;100.00
21902;BME280;11115;46.038;14.612;2024-02-26T05:59:41;97428.28;;;2.20;100.00
21902;BME280;11115;46.038;14.612;2024-02-26T06:02:12;97430.22;;;2.14;100.00
21902;BME280;11115;46.038;14.612;2024-02-26T06:04:45;97433.16;;;2.28;100.00
21902;BME280;11115;46.038;14.612;2024-02-26T06:07:17;97438.34;;;2.24;100.00
21902;BME280;11115;46.038;14.612;2024-02-26T06:10:01;97440.56;;;2.17;100.00
21902;BME280;11115;46.038;14.612;2024-02-26T06:12:51;97399.50;;;1.93;100.00
21902;BME280;11115;46.038;14.612;2024-02-26T06:15:27;97448.78;;;2.17;100.00
21902;BME280;11115;46.038;14.612;2024-02-26T06:17:57;97457.78;;;2.12;100.00
21902;BME280;11115;46.038;14.612;2024-02-26T06:20:34;97443.84;;;2.19;100.00
21902;BME280;11115;46.038;14.612;2024-02-26T06:23:09;97464.78;;;2.34;100.00
21902;BME280;11115;46.038;14.612;2024-02-26T06:25:43;97465.91;;;2.23;100.00
21902;BME280;11115;46.038;14.612;2024-02-26T06:28:22;97480.88;;;2.35;100.00
21902;BME280;11115;46.038;14.612;2024-02-26T06:30:54;97487.72;;;2.28;100.00
21902;BME280;11115;46.038;14.612;2024-02-26T06:33:26;97486.34;;;2.35;100.00
21902;BME280;11115;46.038;14.612;2024-02-26T06:35:57;97478.72;;;2.27;100.00
21902;BME280;11115;46.038;14.612;2024-02-26T06:38:32;97485.81;;;2.33;100.00
21902;BME280;11115;46.038;14.612;2024-02-26T06:41:10;97490.97;;;2.35;100.00
21902;BME280;11115;46.038;14.612;2024-02-26T06:43:49;97487.25;;;2.10;100.00
21902;BME280;11115;46.038;14.612;2024-02-26T06:46:22;97495.91;;;2.33;100.00
21902;BME280;11115;46.038;14.612;2024-02-26T06:48:52;97505.97;;;2.37;100.00
21902;BME280;11115;46.038;14.612;2024-02-26T06:51:26;97501.34;;;2.38;100.00
21902;BME280;11115;46.038;14.612;2024-02-26T06:54:09;97505.13;;;2.42;100.00
21902;BME280;11115;46.038;14.612;2024-02-26T06:56:46;97486.31;;;2.40;100.00
21902;BME280;11115;46.038;14.612;2024-02-26T06:59:14;97501.53;;;2.57;100.00
21902;BME280;11115;46.038;14.612;2024-02-26T07:01:49;97484.44;;;2.36;100.00
21902;BME280;11115;46.038;14.612;2024-02-26T07:04:19;97513.03;;;2.43;100.00
21902;BME280;11115;46.038;14.612;2024-02-26T07:06:52;97514.44;;;2.36;100.00
21902;BME280;11115;46.038;14.612;2024-02-26T07:09:32;97516.88;;;2.42;100.00
21902;BME280;11115;46.038;14.612;2024-02-26T07:12:09;97501.03;;;2.44;100.00
21902;BME280;11115;46.038;14.612;2024-02-26T07:14:51;97508.25;;;2.74;100.00
21902;BME280;11115;46.038;14.612;2024-02-26T07:17:28;97522.75;;;2.70;100.00
21902;BME280;11115;46.038;14.612;2024-02-26T07:20:04;97514.78;;;2.79;100.00
21902;BME280;11115;46.038;14.612;2024-02-26T07:22:48;97511.94;;;2.94;100.00
21902;BME280;11115;46.038;14.612;2024-02-26T07:25:18;97514.97;;;2.92;100.00
21902;BME280;11115;46.038;14.612;2024-02-26T07:27:52;97520.94;;;2.99;100.00
21902;BME280;11115;46.038;14.612;2024-02-26T07:30:22;97515.91;;;2.67;100.00
21902;BME280;11115;46.038;14.612;2024-02-26T07:32:56;97534.38;;;2.86;100.00
21902;BME280;11115;46.038;14.612;2024-02-26T07:35:40;97509.78;;;2.91;100.00
21902;BME280;11115;46.038;14.612;2024-02-26T07:38:11;97525.81;;;3.02;100.00
21902;BME280;11115;46.038;14.612;2024-02-26T07:41:02;97531.00;;;3.04;100.00
21902;BME280;11115;46.038;14.612;2024-02-26T07:43:45;97536.75;;;3.02;100.00
21902;BME280;11115;46.038;14.612;2024-02-26T07:46:23;97535.63;;;3.09;100.00
21902;BME280;11115;46.038;14.612;2024-02-26T07:48:58;97532.53;;;3.20;100.00
21902;BME280;11115;46.038;14.612;2024-02-26T07:51:29;97544.78;;;3.28;100.00
21902;BME280;11115;46.038;14.612;2024-02-26T07:54:02;97543.78;;;3.14;100.00
21902;BME280;11115;46.038;14.612;2024-02-26T07:56:40;97546.44;;;3.29;100.00
21902;BME280;11115;46.038;14.612;2024-02-26T07:59:16;97553.75;;;3.33;100.00
21902;BME280;11115;46.038;14.612;2024-02-26T08:01:56;97497.28;;;2.80;100.00
21902;BME280;11115;46.038;14.612;2024-02-26T08:04:35;97553.75;;;3.33;100.00
21902;BME280;11115;46.038;14.612;2024-02-26T08:07:14;97553.00;;;3.28;100.00
21902;BME280;11115;46.038;14.612;2024-02-26T08:09:55;97553.56;;;3.20;100.00
21902;BME280;11115;46.038;14.612;2024-02-26T08:12:28;97559.81;;;3.30;100.00
21902;BME280;11115;46.038;14.612;2024-02-26T08:15:01;97558.16;;;3.29;100.00
21902;BME280;11115;46.038;14.612;2024-02-26T08:17:32;97545.22;;;3.01;100.00
21902;BME280;11115;46.038;14.612;2024-02-26T08:20:07;97557.84;;;3.36;100.00
21902;BME280;11115;46.038;14.612;2024-02-26T08:22:37;97554.78;;;3.43;100.00
21902;BME280;11115;46.038;14.612;2024-02-26T08:25:17;97561.56;;;3.50;100.00
21902;BME280;11115;46.038;14.612;2024-02-26T08:27:54;97548.09;;;3.59;100.00
21902;BME280;11115;46.038;14.612;2024-02-26T08:30:28;97551.69;;;3.54;100.00
21902;BME280;11115;46.038;14.612;2024-02-26T08:33:07;97543.25;;;3.51;100.00
21902;BME280;11115;46.038;14.612;2024-02-26T08:35:45;97522.88;;;3.67;100.00
21902;BME280;11115;46.038;14.612;2024-02-26T08:38:19;97490.50;;;3.45;100.00
21902;BME280;11115;46.038;14.612;2024-02-26T08:41:02;97543.03;;;4.00;100.00
21902;BME280;11115;46.038;14.612;2024-02-26T08:43:36;97554.78;;;4.06;100.00
21902;BME280;11115;46.038;14.612;2024-02-26T08:46:15;97546.03;;;3.75;100.00
21902;BME280;11115;46.038;14.612;2024-02-26T08:48:46;97549.09;;;3.97;100.00
21902;BME280;11115;46.038;14.612;2024-02-26T08:51:19;97545.75;;;4.05;100.00
21902;BME280;11115;46.038;14.612;2024-02-26T08:53:54;97538.06;;;4.07;100.00
21902;BME280;11115;46.038;14.612;2024-02-26T08:56:30;97543.13;;;4.19;100.00
21902;BME280;11115;46.038;14.612;2024-02-26T08:59:06;97536.97;;;4.08;100.00
21902;BME280;11115;46.038;14.612;2024-02-26T09:01:37;97540.91;;;4.21;100.00
21902;BME280;11115;46.038;14.612;2024-02-26T09:04:07;97530.59;;;4.37;100.00
21902;BME280;11115;46.038;14.612;2024-02-26T09:06:38;97542.31;;;4.42;100.00
21902;BME280;11115;46.038;14.612;2024-02-26T09:09:16;97536.25;;;4.21;100.00
21902;BME280;11115;46.038;14.612;2024-02-26T09:12:16;97539.84;;;4.17;100.00
21902;BME280;11115;46.038;14.612;2024-02-26T09:14:52;97523.59;;;4.02;100.00
21902;BME280;11115;46.038;14.612;2024-02-26T09:17:27;97539.09;;;4.35;100.00
21902;BME280;11115;46.038;14.612;2024-02-26T09:20:05;97535.38;;;4.50;100.00
21902;BME280;11115;46.038;14.612;2024-02-26T09:22:49;97545.84;;;4.67;100.00
21902;BME280;11115;46.038;14.612;2024-02-26T09:25:22;97547.72;;;4.71;100.00
21902;BME280;11115;46.038;14.612;2024-02-26T09:27:54;97546.22;;;4.79;100.00
21902;BME280;11115;46.038;14.612;2024-02-26T09:30:33;97541.63;;;4.74;100.00
21902;BME280;11115;46.038;14.612;2024-02-26T09:33:09;97527.16;;;4.50;100.00
21902;BME280;11115;46.038;14.612;2024-02-26T09:35:41;97549.72;;;4.66;100.00
21902;BME280;11115;46.038;14.612;2024-02-26T09:38:16;97545.25;;;4.27;100.00
21902;BME280;11115;46.038;14.612;2024-02-26T09:40:57;97543.34;;;4.70;100.00
21902;BME280;11115;46.038;14.612;2024-02-26T09:43:40;97545.13;;;4.80;100.00
21902;BME280;11115;46.038;14.612;2024-02-26T09:46:20;97547.81;;;5.04;100.00
21902;BME280;11115;46.038;14.612;2024-02-26T09:49:01;97533.16;;;5.13;100.00
21902;BME280;11115;46.038;14.612;2024-02-26T09:51:36;97538.50;;;5.24;100.00
21902;BME280;11115;46.038;14.612;2024-02-26T09:54:10;97541.53;;;5.22;100.00
21902;BME280;11115;46.038;14.612;2024-02-26T09:56:49;97535.00;;;5.18;100.00
21902;BME280;11115;46.038;14.612;2024-02-26T09:59:35;97543.97;;;5.05;100.00
21902;BME280;11115;46.038;14.612;2024-02-26T10:02:15;97543.88;;;5.10;100.00
21902;BME280;11115;46.038;14.612;2024-02-26T10:04:48;97532.91;;;5.29;100.00
21902;BME280;11115;46.038;14.612;2024-02-26T10:07:26;97535.78;;;5.37;100.00
21902;BME280;11115;46.038;14.612;2024-02-26T10:09:57;97530.69;;;5.31;100.00
21902;BME280;11115;46.038;14.612;2024-02-26T10:12:32;97534.94;;;5.56;100.00
21902;BME280;11115;46.038;14.612;2024-02-26T10:15:02;97531.38;;;5.55;100.00
21902;BME280;11115;46.038;14.612;2024-02-26T10:17:36;97513.44;;;5.30;100.00
21902;BME280;11115;46.038;14.612;2024-02-26T10:20:16;97486.50;;;5.32;100.00
21902;BME280;11115;46.038;14.612;2024-02-26T10:23:04;97523.06;;;5.79;100.00
21902;BME280;11115;46.038;14.612;2024-02-26T10:25:56;97528.31;;;5.75;100.00
21902;BME280;11115;46.038;14.612;2024-02-26T10:28:39;97532.22;;;5.88;100.00
21902;BME280;11115;46.038;14.612;2024-02-26T10:31:30;97506.59;;;5.79;100.00
21902;BME280;11115;46.038;14.612;2024-02-26T10:34:17;97524.75;;;6.07;100.00
21902;BME280;11115;46.038;14.612;2024-02-26T10:36:50;97517.03;;;6.09;100.00
21902;BME280;11115;46.038;14.612;2024-02-26T10:39:23;97523.84;;;6.26;100.00
21902;BME280;11115;46.038;14.612;2024-02-26T10:41:55;97534.53;;;6.27;100.00
21902;BME280;11115;46.038;14.612;2024-02-26T10:44:40;97534.22;;;6.29;100.00
21902;BME280;11115;46.038;14.612;2024-02-26T10:47:08;97530.38;;;6.30;100.00
21902;BME280;11115;46.038;14.612;2024-02-26T10:49:54;97536.56;;;6.49;100.00
21902;BME280;11115;46.038;14.612;2024-02-26T10:52:28;97529.78;;;6.60;100.00
21902;BME280;11115;46.038;14.612;2024-02-26T10:55:04;97511.72;;;6.82;100.00
21902;BME280;11115;46.038;14.612;2024-02-26T10:57:40;97527.84;;;7.11;100.00
21902;BME280;11115;46.038;14.612;2024-02-26T11:00:21;97522.69;;;7.31;100.00
21902;BME280;11115;46.038;14.612;2024-02-26T11:02:57;97514.31;;;7.37;100.00
21902;BME280;11115;46.038;14.612;2024-02-26T11:05:34;97509.38;;;7.25;100.00
21902;BME280;11115;46.038;14.612;2024-02-26T11:08:08;97505.63;;;7.21;100.00
21902;BME280;11115;46.038;14.612;2024-02-26T11:10:43;97490.66;;;7.13;100.00
21902;BME280;11115;46.038;14.612;2024-02-26T11:13:26;97489.56;;;7.14;100.00
21902;BME280;11115;46.038;14.612;2024-02-26T11:15:58;97496.56;;;7.20;100.00
21902;BME280;11115;46.038;14.612;2024-02-26T11:18:32;97491.00;;;7.34;100.00
21902;BME280;11115;46.038;14.612;2024-02-26T11:21:08;97471.63;;;7.17;100.00
21902;BME280;11115;46.038;14.612;2024-02-26T11:23:43;97458.53;;;7.22;100.00
21902;BME280;11115;46.038;14.612;2024-02-26T11:26:24;97485.25;;;7.44;100.00
21902;BME280;11115;46.038;14.612;2024-02-26T11:28:56;97489.06;;;7.57;100.00
21902;BME280;11115;46.038;14.612;2024-02-26T11:31:29;97485.03;;;7.63;100.00
21902;BME280;11115;46.038;14.612;2024-02-26T11:34:05;97486.84;;;7.68;100.00
21902;BME280;11115;46.038;14.612;2024-02-26T11:36:39;97470.72;;;7.75;100.00
21902;BME280;11115;46.038;14.612;2024-02-26T11:39:15;97473.97;;;7.77;100.00
21902;BME280;11115;46.038;14.612;2024-02-26T11:41:54;97447.88;;;7.74;100.00
21902;BME280;11115;46.038;14.612;2024-02-26T11:44:31;97471.94;;;7.91;100.00
21902;BME280;11115;46.038;14.612;2024-02-26T11:47:21;97463.44;;;8.10;100.00
21902;BME280;11115;46.038;14.612;2024-02-26T11:49:53;97468.00;;;8.14;100.00
21902;BME280;11115;46.038;14.612;2024-02-26T11:52:25;97462.44;;;8.06;100.00
21902;BME280;11115;46.038;14.612;2024-02-26T11:55:12;97461.28;;;7.98;100.00
21902;BME280;11115;46.038;14.612;2024-02-26T11:58:07;97460.56;;;8.15;100.00
21902;BME280;11115;46.038;14.612;2024-02-26T12:00:45;97456.34;;;8.17;100.00
21902;BME280;11115;46.038;14.612;2024-02-26T12:03:28;97467.06;;;8.28;100.00
21902;BME280;11115;46.038;14.612;2024-02-26T12:06:04;97435.75;;;8.15;100.00
21902;BME280;11115;46.038;14.612;2024-02-26T12:08:41;97460.19;;;8.39;100.00
21902;BME280;11115;46.038;14.612;2024-02-26T12:11:17;97449.72;;;8.27;100.00
21902;BME280;11115;46.038;14.612;2024-02-26T12:13:48;97459.22;;;8.43;100.00
21902;BME280;11115;46.038;14.612;2024-02-26T12:19:27;97436.34;;;8.34;100.00
21902;BME280;11115;46.038;14.612;2024-02-26T12:21:57;97446.94;;;8.49;100.00
21902;BME280;11115;46.038;14.612;2024-02-26T12:24:32;97442.22;;;8.50;100.00
21902;BME280;11115;46.038;14.612;2024-02-26T12:27:06;97443.69;;;8.56;100.00
21902;BME280;11115;46.038;14.612;2024-02-26T12:29:44;97449.34;;;8.51;100.00
21902;BME280;11115;46.038;14.612;2024-02-26T12:32:21;97420.78;;;8.38;100.00
21902;BME280;11115;46.038;14.612;2024-02-26T12:34:53;97451.00;;;8.61;100.00
21902;BME280;11115;46.038;14.612;2024-02-26T12:37:30;97439.47;;;8.59;100.00
21902;BME280;11115;46.038;14.612;2024-02-26T12:40:05;97446.66;;;8.68;100.00
21902;BME280;11115;46.038;14.612;2024-02-26T12:42:43;97404.09;;;8.43;100.00
21902;BME280;11115;46.038;14.612;2024-02-26T12:45:18;97450.72;;;8.97;100.00
21902;BME280;11115;46.038;14.612;2024-02-26T12:47:51;97445.84;;;8.94;100.00
21902;BME280;11115;46.038;14.612;2024-02-26T12:50:32;97448.59;;;9.02;100.00
21902;BME280;11115;46.038;14.612;2024-02-26T12:53:12;97443.25;;;9.06;100.00
21902;BME280;11115;46.038;14.612;2024-02-26T12:55:47;97434.00;;;9.28;100.00
21902;BME280;11115;46.038;14.612;2024-02-26T12:58:16;97433.53;;;9.26;100.00
21902;BME280;11115;46.038;14.612;2024-02-26T13:00:47;97439.53;;;9.45;100.00
21902;BME280;11115;46.038;14.612;2024-02-26T13:03:34;97437.38;;;9.68;100.00
21902;BME280;11115;46.038;14.612;2024-02-26T13:06:10;97426.00;;;9.69;100.00
21902;BME280;11115;46.038;14.612;2024-02-26T13:08:40;97439.66;;;9.66;100.00
21902;BME280;11115;46.038;14.612;2024-02-26T13:11:15;97441.72;;;9.78;100.00
21902;BME280;11115;46.038;14.612;2024-02-26T13:13:48;97426.72;;;9.96;100.00
21902;BME280;11115;46.038;14.612;2024-02-26T13:16:18;97445.38;;;9.99;100.00
21902;BME280;11115;46.038;14.612;2024-02-26T13:18:55;97430.31;;;10.34;100.00
21902;BME280;11115;46.038;14.612;2024-02-26T13:21:25;97444.91;;;10.73;100.00
21902;BME280;11115;46.038;14.612;2024-02-26T13:23:57;97441.00;;;11.37;100.00
21902;BME280;11115;46.038;14.612;2024-02-26T13:26:30;97422.22;;;12.21;100.00
21902;BME280;11115;46.038;14.612;2024-02-26T13:29:07;97440.03;;;13.89;100.00
21902;BME280;11115;46.038;14.612;2024-02-26T13:31:40;97433.09;;;13.83;100.00
21902;BME280;11115;46.038;14.612;2024-02-26T13:34:29;97431.03;;;13.80;100.00
21902;BME280;11115;46.038;14.612;2024-02-26T13:37:07;97425.66;;;13.71;100.00
21902;BME280;11115;46.038;14.612;2024-02-26T13:39:41;97434.94;;;14.07;100.00